Time;durP1;ratioP1;P1;durP2;ratioP2;P2;SDS_P1;SDS_P2;PMS_P1;PMS_P2;Temp;Humidity;BMP_temperature;BMP_pressure;BME280_temperature;BME280_humidity;BME280_pressure;Samples;Min_cycle;Max_cycle;Signal;HPM_P1;HPM_P2
2022/09/27 00:00:30;;;;;;;7.10;1.50;;;11.60;99.90;;;;;;5053812;28;20029;-71
2022/09/27 00:02:56;;;;;;;4.53;1.37;;;11.60;99.90;;;;;;5053888;28;20120;-70
2022/09/27 00:05:22;;;;;;;6.40;1.80;;;11.60;99.90;;;;;;5053905;28;20108;-71
2022/09/27 00:07:48;;;;;;;7.63;1.70;;;11.60;99.90;;;;;;5036000;28;20037;-70
2022/09/27 00:10:15;;;;;;;7.10;1.90;;;11.60;99.90;;;;;;5053713;28;20108;-70
2022/09/27 00:12:41;;;;;;;6.73;1.90;;;11.60;99.90;;;;;;5053647;28;20032;-71
2022/09/27 00:15:08;;;;;;;6.03;2.47;;;11.60;99.90;;;;;;5053812;28;20029;-71
2022/09/27 00:17:35;;;;;;;7.43;2.77;;;11.50;99.90;;;;;;5053445;28;20029;-71
2022/09/27 00:20:03;;;;;;;18.37;5.33;;;11.50;99.90;;;;;;5053369;28;20500;-71
2022/09/27 00:22:30;;;;;;;16.53;5.13;;;11.50;99.90;;;;;;5053609;28;20737;-70
2022/09/27 00:24:55;;;;;;;20.30;6.37;;;11.50;99.90;;;;;;5053677;28;20033;-71
2022/09/27 00:27:21;;;;;;;16.00;5.63;;;11.50;99.90;;;;;;5053624;28;20504;-70
2022/09/27 00:29:48;;;;;;;9.70;3.20;;;11.50;99.90;;;;;;5053254;28;20443;-70
2022/09/27 00:32:14;;;;;;;7.93;2.40;;;11.50;99.90;;;;;;5052716;28;20037;-70
2022/09/27 00:34:40;;;;;;;9.27;2.33;;;11.60;99.90;;;;;;5053444;28;20041;-71
2022/09/27 00:37:08;;;;;;;7.07;1.90;;;11.50;99.90;;;;;;5053134;28;20516;-70
2022/09/27 00:39:33;;;;;;;7.17;1.83;;;11.50;99.90;;;;;;5035320;28;20037;-70
2022/09/27 00:41:59;;;;;;;8.90;1.67;;;11.50;99.90;;;;;;5053255;28;20246;-70
2022/09/27 00:44:26;;;;;;;7.03;1.77;;;11.50;99.90;;;;;;5035382;28;20029;-70
2022/09/27 00:47:10;;;;;;;6.93;2.17;;;11.60;99.90;;;;;;5052971;28;20029;-70
2022/09/27 00:49:39;;;;;;;12.30;2.40;;;11.50;99.90;;;;;;5035098;28;20490;-71
2022/09/27 00:52:12;;;;;;;8.77;2.90;;;11.50;99.90;;;;;;5053081;28;20068;-70
2022/09/27 00:54:41;;;;;;;9.97;2.73;;;11.50;99.90;;;;;;5053148;28;20108;-70
2022/09/27 00:57:08;;;;;;;;;;;11.50;99.90;;;;;;5051868;28;20040;-70
2022/09/27 00:59:41;;;;;;;7.23;2.53;;;11.50;99.90;;;;;;5052763;28;19913;-70
2022/09/27 01:02:07;;;;;;;8.00;3.10;;;11.50;99.90;;;;;;5052895;28;20032;-71
2022/09/27 01:04:37;;;;;;;8.73;2.83;;;11.50;99.90;;;;;;5035031;28;20029;-70
2022/09/27 01:07:03;;;;;;;13.33;4.10;;;11.50;99.90;;;;;;5034830;28;20512;-71
2022/09/27 01:09:29;;;;;;;14.30;4.90;;;11.50;99.90;;;;;;5052558;28;20033;-71
2022/09/27 01:12:39;;;;;;;12.53;4.30;;;11.50;99.90;;;;;;5034706;28;20033;-71
2022/09/27 01:15:11;;;;;;;10.60;3.70;;;11.50;99.90;;;;;;5045530;28;20039;-71
2022/09/27 01:17:52;;;;;;;10.67;3.00;;;11.50;99.90;;;;;;5052423;28;20029;-71
2022/09/27 01:20:39;;;;;;;10.20;2.93;;;11.50;99.90;;;;;;5034665;28;20288;-70
2022/09/27 01:23:30;;;;;;;11.97;3.10;;;11.40;99.90;;;;;;5034639;28;20444;-70
2022/09/27 01:26:13;;;;;;;7.70;3.13;;;11.40;99.90;;;;;;5034636;28;20031;-71
2022/09/27 01:28:57;;;;;;;9.03;3.50;;;11.50;99.90;;;;;;5052332;28;20039;-71
2022/09/27 01:31:49;;;;;;;7.37;2.67;;;11.40;99.90;;;;;;5034221;28;20033;-70
2022/09/27 01:34:15;;;;;;;9.27;2.80;;;11.40;99.90;;;;;;5034032;28;20041;-70
2022/09/27 01:36:56;;;;;;;8.50;2.90;;;11.40;99.90;;;;;;5034175;28;20417;-70
2022/09/27 01:39:42;;;;;;;7.93;2.73;;;11.40;99.90;;;;;;5034157;28;20029;-70
2022/09/27 01:42:33;;;;;;;9.67;2.50;;;11.40;99.90;;;;;;5051498;28;20044;-70
2022/09/27 01:45:22;;;;;;;7.80;2.20;;;11.40;99.90;;;;;;5034160;28;20080;-71
2022/09/27 01:48:27;;;;;;;4.83;2.10;;;11.40;99.90;;;;;;5034177;28;20029;-70
2022/09/27 01:51:03;;;;;;;6.70;2.20;;;11.40;99.90;;;;;;5051766;28;20055;-70
2022/09/27 01:53:35;;;;;;;7.63;2.07;;;11.40;99.90;;;;;;5034065;28;20120;-70
2022/09/27 01:56:34;;;;;;;8.10;2.60;;;11.40;99.90;;;;;;5046637;28;20047;-69
2022/09/27 01:59:24;;;;;;;10.00;2.77;;;11.40;99.90;;;;;;5050480;28;20113;-70
2022/09/27 02:02:08;;;;;;;6.30;2.43;;;11.40;99.90;;;;;;5033877;28;20029;-71
2022/09/27 02:04:59;;;;;;;8.57;2.37;;;11.40;99.90;;;;;;5051731;28;20037;-71
2022/09/27 02:07:33;;;;;;;8.00;3.00;;;11.40;99.90;;;;;;5033755;28;20075;-70
2022/09/27 02:10:09;;;;;;;9.60;3.90;;;11.40;99.90;;;;;;5050107;28;20032;-71
2022/09/27 02:13:04;;;;;;;12.90;4.10;;;11.40;99.90;;;;;;5033590;28;20035;-71
2022/09/27 02:15:49;;;;;;;7.50;3.47;;;11.40;99.90;;;;;;5033629;28;20501;-71
2022/09/27 02:18:31;;;;;;;9.30;3.07;;;11.40;99.90;;;;;;5033547;28;20029;-70
2022/09/27 02:21:00;;;;;;;7.60;3.03;;;11.40;99.90;;;;;;5033445;28;20082;-70
2022/09/27 02:23:30;;;;;;;6.20;3.33;;;11.40;99.90;;;;;;5033725;28;20060;-71
2022/09/27 02:26:21;;;;;;;8.60;3.17;;;11.40;99.90;;;;;;5033565;28;20102;-70
2022/09/27 02:29:06;;;;;;;7.57;2.63;;;11.30;99.90;;;;;;5033393;28;20087;-70
2022/09/27 02:31:40;;;;;;;7.87;2.93;;;11.40;99.90;;;;;;5033117;28;20079;-70
2022/09/27 02:34:28;;;;;;;8.37;2.87;;;11.30;99.90;;;;;;5049990;28;20039;-70
2022/09/27 02:36:55;;;;;;;6.10;2.80;;;11.40;99.90;;;;;;5033071;28;20052;-71
2022/09/27 02:39:21;;;;;;;9.57;3.10;;;11.30;99.90;;;;;;5033144;28;20040;-71
2022/09/27 02:41:57;;;;;;;6.27;2.90;;;11.30;99.90;;;;;;5033208;28;20028;-71
2022/09/27 02:44:24;;;;;;;6.03;2.70;;;11.30;99.90;;;;;;5049728;28;20025;-70
2022/09/27 02:47:05;;;;;;;7.70;2.80;;;11.30;99.90;;;;;;5033122;28;20063;-70
2022/09/27 02:49:56;;;;;;;6.67;2.80;;;11.30;99.90;;;;;;5032878;28;20025;-70
2022/09/27 02:53:20;;;;;;;8.60;2.93;;;11.30;99.90;;;;;;5031274;28;20306;-70
2022/09/27 02:56:41;;;;;;;5.87;2.73;;;11.30;99.90;;;;;;5026841;28;20037;-70
2022/09/27 02:59:47;;;;;;;8.37;3.43;;;11.30;99.90;;;;;;5012281;28;20544;-71
2022/09/27 03:02:47;;;;;;;;;;;11.30;99.90;;;;;;5014126;28;20561;-70
2022/09/27 03:05:45;;;;;;;7.70;2.70;;;11.20;99.90;;;;;;5049636;28;19909;-70
2022/09/27 03:08:12;;;;;;;7.73;2.50;;;11.20;99.90;;;;;;5033040;28;20124;-71
2022/09/27 03:10:38;;;;;;;8.57;2.77;;;11.20;99.90;;;;;;5032991;28;20033;-70
2022/09/27 03:13:05;;;;;;;9.73;3.33;;;11.20;99.90;;;;;;5051000;28;20171;-70
2022/09/27 03:15:31;;;;;;;8.00;3.10;;;11.20;99.90;;;;;;5033029;28;20037;-71
2022/09/27 03:18:00;;;;;;;8.70;3.00;;;11.10;99.90;;;;;;5050687;28;20128;-71
2022/09/27 03:20:41;;;;;;;5.83;2.90;;;11.10;99.90;;;;;;5050496;28;20033;-71
2022/09/27 03:23:09;;;;;;;9.70;2.53;;;11.10;99.90;;;;;;5032941;28;20125;-70
2022/09/27 03:25:35;;;;;;;11.83;3.03;;;11.10;99.90;;;;;;5033148;28;20119;-71
2022/09/27 03:28:02;;;;;;;8.47;3.23;;;11.10;99.90;;;;;;5032740;28;20033;-71
2022/09/27 03:30:28;;;;;;;6.30;2.67;;;11.10;99.90;;;;;;5032447;28;20057;-71
2022/09/27 03:32:54;;;;;;;5.57;2.67;;;11.10;99.90;;;;;;5073083;22;20139;-81
2022/09/27 03:35:29;;;;;;;6.47;2.60;;;11.00;99.90;;;;;;5070588;28;20558;-82
2022/09/27 03:37:55;;;;;;;11.17;3.67;;;11.00;99.90;;;;;;5051959;28;20085;-81
2022/09/27 03:40:20;;;;;;;6.67;2.33;;;11.00;99.90;;;;;;5052178;28;20119;-82
2022/09/27 03:42:48;;;;;;;5.57;2.33;;;11.00;99.90;;;;;;5069020;28;20059;-81
2022/09/27 03:45:14;;;;;;;5.70;2.07;;;11.00;99.90;;;;;;5052278;28;20029;-82
2022/09/27 03:47:40;;;;;;;8.20;2.53;;;11.00;99.90;;;;;;5052082;28;20056;-82
2022/09/27 03:50:08;;;;;;;4.77;2.00;;;11.00;99.90;;;;;;5052102;28;20056;-81
2022/09/27 03:52:34;;;;;;;5.40;2.00;;;11.00;99.90;;;;;;5070204;28;20115;-82
2022/09/27 03:55:00;;;;;;;5.07;1.77;;;11.00;99.90;;;;;;5052227;28;20028;-82
2022/09/27 03:57:26;;;;;;;5.30;1.70;;;11.00;99.90;;;;;;5068672;28;20032;-82
2022/09/27 03:59:52;;;;;;;6.07;1.83;;;10.90;99.90;;;;;;5051932;28;20120;-82
2022/09/27 04:02:39;;;;;;;6.87;1.70;;;10.90;99.90;;;;;;5060258;28;20030;-82
2022/09/27 04:05:25;;;;;;;6.73;1.47;;;10.90;99.90;;;;;;5070520;28;20367;-82
2022/09/27 04:08:01;;;;;;;3.90;1.70;;;10.90;99.90;;;;;;5055842;28;20036;-81
2022/09/27 04:10:29;;;;;;;5.20;1.70;;;10.90;99.90;;;;;;5055457;28;20097;-81
2022/09/27 04:12:55;;;;;;;6.10;1.90;;;10.90;99.90;;;;;;5055460;28;20497;-81
2022/09/27 04:15:23;;;;;;;3.60;1.50;;;10.90;99.90;;;;;;5055809;28;20032;-82
2022/09/27 04:17:49;;;;;;;6.13;1.57;;;10.90;99.90;;;;;;5073538;28;20036;-81
2022/09/27 04:20:44;;;;;;;6.37;1.93;;;10.90;99.90;;;;;;5076318;28;20071;-81
2022/09/27 04:23:12;;;;;;;7.80;2.73;;;10.90;99.90;;;;;;5055311;28;20496;-81
2022/09/27 04:25:43;;;;;;;7.73;1.60;;;10.90;99.90;;;;;;5055370;28;20307;-81
2022/09/27 04:28:17;;;;;;;7.30;2.53;;;10.90;99.90;;;;;;5055343;28;20373;-82
2022/09/27 04:30:45;;;;;;;7.03;2.40;;;10.90;99.90;;;;;;5054917;28;20036;-82
2022/09/27 04:33:11;;;;;;;6.23;1.83;;;10.90;99.90;;;;;;5055499;28;20040;-81
2022/09/27 04:38:28;;;;;;;5.63;1.57;;;10.80;99.90;;;;;;5071613;28;20036;-82
2022/09/27 04:40:54;;;;;;;6.90;1.73;;;10.90;99.90;;;;;;5054771;28;20028;-81
2022/09/27 04:43:21;;;;;;;8.37;1.63;;;10.90;99.90;;;;;;5071853;28;20439;-82
2022/09/27 04:45:46;;;;;;;5.63;1.33;;;10.80;99.90;;;;;;5054805;28;20025;-81
2022/09/27 04:48:12;;;;;;;6.93;1.63;;;10.80;99.90;;;;;;5055070;28;20480;-82
2022/09/27 04:50:39;;;;;;;6.73;1.57;;;10.80;99.90;;;;;;5054630;28;20429;-82
2022/09/27 04:53:05;;;;;;;4.43;1.23;;;10.80;99.90;;;;;;5072920;28;20522;-81
2022/09/27 04:55:31;;;;;;;7.70;1.90;;;10.80;99.90;;;;;;5054793;28;20050;-82
2022/09/27 04:58:00;;;;;;;10.37;3.33;;;10.80;99.90;;;;;;5054405;28;20044;-82
2022/09/27 05:00:27;;;;;;;5.05;1.85;;;10.80;99.90;;;;;;5054430;28;20024;-82
2022/09/27 05:03:02;;;;;;;7.37;2.57;;;10.80;99.90;;;;;;5039287;28;20119;-82
2022/09/27 05:05:49;;;;;;;4.53;1.70;;;10.80;99.90;;;;;;5054385;28;20028;-82
2022/09/27 05:08:15;;;;;;;6.07;1.67;;;10.80;99.90;;;;;;5054539;28;20031;-81
2022/09/27 05:11:04;;;;;;;6.87;1.40;;;10.80;99.90;;;;;;5072191;28;20064;-81
2022/09/27 05:13:30;;;;;;;5.63;1.53;;;10.80;99.90;;;;;;5054490;28;20639;-81
2022/09/27 05:16:02;;;;;;;5.53;1.70;;;10.80;99.90;;;;;;5054130;28;20115;-81
2022/09/27 05:18:46;;;;;;;4.53;1.47;;;10.80;99.90;;;;;;5054058;28;20048;-81
2022/09/27 05:21:30;;;;;;;5.47;1.30;;;10.80;99.90;;;;;;5072016;28;20056;-82
2022/09/27 05:23:57;;;;;;;3.73;1.10;;;10.80;99.90;;;;;;5054231;28;20079;-81
2022/09/27 05:26:23;;;;;;;6.30;1.10;;;10.80;99.90;;;;;;5054335;28;20031;-82
2022/09/27 05:28:49;;;;;;;5.23;0.90;;;10.70;99.90;;;;;;5070613;28;20032;-81
2022/09/27 05:31:15;;;;;;;8.60;1.40;;;10.70;99.90;;;;;;5053874;28;20392;-82
2022/09/27 05:33:42;;;;;;;4.60;1.20;;;10.80;99.90;;;;;;5037809;28;20512;-82
2022/09/27 05:36:29;;;;;;;12.53;1.30;;;10.70;99.90;;;;;;5053667;28;20020;-82
2022/09/27 05:38:55;;;;;;;3.33;1.00;;;10.80;99.90;;;;;;5053816;28;20157;-81
2022/09/27 05:41:24;;;;;;;4.73;1.10;;;10.70;99.90;;;;;;5053781;28;20410;-82
2022/09/27 05:43:49;;;;;;;5.40;1.40;;;10.70;99.90;;;;;;5053816;28;20054;-82
2022/09/27 05:46:15;;;;;;;8.40;2.20;;;10.70;99.90;;;;;;5053619;28;20527;-81
2022/09/27 05:48:42;;;;;;;8.47;2.10;;;10.70;99.90;;;;;;5053544;28;20039;-81
2022/09/27 05:51:10;;;;;;;2.97;1.17;;;10.70;99.90;;;;;;5070197;28;20033;-81
2022/09/27 05:53:38;;;;;;;4.05;1.42;;;10.70;99.90;;;;;;5053613;28;20040;-81
2022/09/27 05:56:07;;;;;;;3.85;1.38;;;10.70;99.90;;;;;;5053418;28;20037;-81
2022/09/27 05:58:51;;;;;;;6.30;1.30;;;10.70;99.90;;;;;;5071330;28;20078;-82
2022/09/27 06:01:18;;;;;;;4.13;1.47;;;10.70;99.90;;;;;;5053418;28;20428;-82
2022/09/27 06:04:12;;;;;;;7.53;1.20;;;10.70;99.90;;;;;;5057679;28;20024;-81
2022/09/27 06:07:10;;;;;;;8.57;3.80;;;10.70;99.90;;;;;;5053513;28;20400;-81
2022/09/27 06:09:36;;;;;;;6.23;2.40;;;10.80;99.90;;;;;;5053181;28;20028;-81
2022/09/27 06:12:02;;;;;;;4.40;1.97;;;10.70;99.90;;;;;;5069903;28;20074;-82
2022/09/27 06:14:28;;;;;;;5.23;1.50;;;10.70;99.90;;;;;;5053294;28;20123;-81
2022/09/27 06:16:58;;;;;;;5.53;1.73;;;10.80;99.90;;;;;;5053039;28;20347;-81
2022/09/27 06:19:27;;;;;;;6.68;1.73;;;10.70;99.90;;;;;;5052955;28;20374;-81
2022/09/27 06:21:54;;;;;;;2.87;1.50;;;10.80;99.90;;;;;;5053131;28;20025;-82
2022/09/27 06:24:25;;;;;;;6.67;1.57;;;10.80;99.90;;;;;;5053409;28;20036;-82
2022/09/27 06:26:51;;;;;;;5.43;1.73;;;10.80;99.90;;;;;;5052854;28;20032;-82
2022/09/27 06:29:37;;;;;;;6.17;1.57;;;10.80;99.90;;;;;;5069102;28;20666;-81
2022/09/27 06:32:06;;;;;;;4.87;1.27;;;10.80;99.90;;;;;;5052976;28;20036;-82
2022/09/27 06:34:40;;;;;;;5.77;1.80;;;10.80;99.90;;;;;;5071431;28;20040;-82
2022/09/27 06:37:06;;;;;;;5.93;2.40;;;10.80;99.90;;;;;;5052924;28;20025;-82
2022/09/27 06:39:33;;;;;;;5.97;2.10;;;10.80;99.90;;;;;;5052669;28;20370;-81
2022/09/27 06:42:31;;;;;;;4.38;1.30;;;10.90;99.90;;;;;;5070564;28;20509;-82
2022/09/27 06:45:11;;;;;;;5.32;0.95;;;10.90;99.90;;;;;;5052897;28;20032;-81
2022/09/27 06:47:55;;;;;;;6.00;1.30;;;10.90;99.90;;;;;;5070622;28;20048;-82
2022/09/27 06:50:42;;;;;;;4.57;1.10;;;10.90;99.90;;;;;;5055415;28;20511;-81
2022/09/27 06:53:11;;;;;;;5.50;1.17;;;10.80;99.90;;;;;;5052699;28;20073;-81
2022/09/27 06:55:38;;;;;;;7.47;3.97;;;10.90;99.90;;;;;;5052583;28;20043;-81
2022/09/27 07:01:09;;;;;;;5.93;2.80;;;10.90;99.90;;;;;;5028863;28;20025;-81
2022/09/27 07:03:53;;;;;;;6.40;3.03;;;10.90;99.90;;;;;;5070419;28;20044;-84
2022/09/27 07:06:42;;;;;;;9.07;3.25;;;10.90;99.90;;;;;;5055858;28;20086;-82
2022/09/27 07:09:44;;;;;;;4.50;1.50;;;10.90;99.90;;;;;;5069572;28;20040;-94
2022/09/27 07:12:12;;;;;;;3.67;1.20;;;11.00;99.90;;;;;;5052968;28;20033;-86
2022/09/27 07:14:38;;;;;;;4.97;0.70;;;11.00;99.90;;;;;;5052527;28;20028;-87
2022/09/27 07:17:38;;;;;;;2.33;0.90;;;10.90;99.90;;;;;;5052633;28;20108;-90
2022/09/27 07:20:12;;;;;;;4.03;0.73;;;11.00;99.90;;;;;;5051792;28;20059;-87
2022/09/27 07:22:44;;;;;;;3.50;0.63;;;11.00;99.90;;;;;;5069353;28;20449;-85
2022/09/27 07:25:11;;;;;;;2.47;0.70;;;10.90;99.90;;;;;;5051396;28;20527;-85
2022/09/27 07:27:38;;;;;;;4.63;1.10;;;11.00;99.90;;;;;;5067148;28;20119;-85
2022/09/27 07:30:08;;;;;;;4.43;0.80;;;11.00;99.90;;;;;;5050585;28;20028;-85
2022/09/27 07:32:37;;;;;;;2.73;0.63;;;11.00;99.90;;;;;;5068707;28;20089;-86
2022/09/27 07:35:06;;;;;;;3.00;1.23;;;11.00;99.90;;;;;;5067780;28;20040;-85
2022/09/27 07:37:36;;;;;;;5.37;2.03;;;11.00;99.90;;;;;;5050609;28;20412;-86
2022/09/27 07:40:06;;;;;;;6.10;2.43;;;11.00;99.90;;;;;;5051040;28;20576;-86
2022/09/27 07:42:33;;;;;;;3.47;1.00;;;11.00;99.90;;;;;;5072653;28;20112;-86
2022/09/27 07:45:00;;;;;;;3.27;0.90;;;11.00;99.90;;;;;;5039689;28;20485;-86
2022/09/27 07:47:47;;;;;;;4.37;1.50;;;11.00;99.90;;;;;;5055913;28;20511;-86
2022/09/27 07:50:23;;;;;;;2.73;1.00;;;11.00;99.90;;;;;;5057345;28;20024;-86
2022/09/27 07:52:56;;;;;;;3.03;0.90;;;11.10;99.90;;;;;;5056908;28;20569;-86
2022/09/27 07:55:28;;;;;;;5.20;1.10;;;11.10;99.90;;;;;;5074374;28;20086;-85
2022/09/27 07:58:06;;;;;;;3.55;1.15;;;11.10;99.90;;;;;;5072342;28;20039;-86
2022/09/27 08:00:32;;;;;;;2.93;0.83;;;11.20;99.90;;;;;;5055646;28;20032;-86
2022/09/27 08:03:02;;;;;;;3.60;1.17;;;11.20;99.90;;;;;;5055826;28;20020;-86
2022/09/27 08:05:28;;;;;;;2.33;0.80;;;11.20;99.90;;;;;;5055852;28;20024;-86
2022/09/27 08:07:57;;;;;;;3.67;0.93;;;11.20;99.90;;;;;;5055546;28;20447;-86
2022/09/27 08:10:30;;;;;;;2.93;1.10;;;11.20;99.90;;;;;;5055669;28;20036;-86
2022/09/27 08:12:58;;;;;;;3.57;0.90;;;11.10;99.90;;;;;;5039088;28;20078;-86
2022/09/27 08:15:24;;;;;;;3.57;0.70;;;11.20;99.90;;;;;;5055716;28;20052;-85
2022/09/27 08:17:50;;;;;;;1.47;0.70;;;11.20;99.90;;;;;;5055378;28;20428;-86
2022/09/27 08:20:24;;;;;;;2.67;0.70;;;11.20;99.90;;;;;;5055347;28;20086;-86
2022/09/27 08:23:21;;;;;;;3.07;0.90;;;11.20;99.90;;;;;;5056911;28;20104;-87
2022/09/27 08:26:02;;;;;;;3.35;0.90;;;11.30;99.90;;;;;;5055311;28;20025;-88
2022/09/27 08:28:47;;;;;;;4.37;0.73;;;11.40;99.90;;;;;;5073517;28;20132;-86
2022/09/27 08:31:18;;;;;;;1.73;0.70;;;11.30;99.90;;;;;;5055779;28;20127;-86
2022/09/27 08:33:50;;;;;;;2.63;1.00;;;11.30;99.90;;;;;;5038769;28;20031;-86
2022/09/27 08:36:16;;;;;;;3.37;0.90;;;11.30;99.90;;;;;;5055057;28;20024;-86
2022/09/27 08:38:43;;;;;;;4.10;1.70;;;11.40;99.90;;;;;;5055167;28;20024;-88
2022/09/27 08:41:48;;;;;;;6.97;1.83;;;11.30;99.90;;;;;;5056274;28;20021;-89
2022/09/27 08:44:47;;;;;;;4.00;1.00;;;11.40;99.90;;;;;;5055449;28;20029;-88
2022/09/27 08:48:05;;;;;;;3.28;0.90;;;11.30;99.90;;;;;;5071947;28;20032;-94
2022/09/27 08:54:35;;;;;;;3.03;0.80;;;11.30;99.90;;;;;;4985311;28;20511;-89
2022/09/27 08:57:05;;;;;;;1.57;0.77;;;11.30;99.90;;;;;;4991526;28;20111;-86
2022/09/27 09:02:24;;;;;;;2.90;1.20;;;11.40;99.90;;;;;;5029898;28;20174;-72
2022/09/27 09:05:16;;;;;;;4.33;0.83;;;11.40;99.90;;;;;;5015336;28;20025;-73
2022/09/27 09:07:54;;;;;;;3.90;0.87;;;11.40;99.90;;;;;;5032870;28;20064;-74
2022/09/27 09:13:43;;;;;;;3.90;1.63;;;11.50;99.90;;;;;;5015604;28;20037;-74
2022/09/27 09:16:27;;;;;;;2.60;0.80;;;11.50;99.90;;;;;;4998319;28;20072;-73
2022/09/27 09:19:24;;;;;;;3.03;0.93;;;11.50;99.90;;;;;;5013972;28;20393;-73
2022/09/27 09:22:34;;;;;;;3.42;1.42;;;11.50;99.90;;;;;;5000370;28;20333;-73
2022/09/27 09:25:18;;;;;;;4.27;1.80;;;11.50;99.90;;;;;;5014436;28;20398;-73
2022/09/27 09:28:03;;;;;;;2.80;1.00;;;11.40;99.90;;;;;;5014450;28;20061;-73
2022/09/27 09:30:45;;;;;;;2.53;1.20;;;11.40;99.90;;;;;;4998518;28;20490;-73
2022/09/27 09:33:24;;;;;;;2.73;0.90;;;11.40;99.90;;;;;;5033206;28;20393;-73
2022/09/27 09:36:12;;;;;;;1.73;1.02;;;11.40;99.90;;;;;;5015254;28;20486;-73
2022/09/27 09:38:46;;;;;;;3.03;1.38;;;11.40;99.90;;;;;;5015415;28;20494;-73
2022/09/27 09:41:48;;;;;;;2.63;1.73;;;11.50;99.90;;;;;;5014984;28;20067;-72
2022/09/27 09:44:25;;;;;;;4.70;1.40;;;11.50;99.90;;;;;;4984918;28;20029;-72
2022/09/27 09:46:58;;;;;;;4.87;1.87;;;11.50;99.90;;;;;;4998281;28;20032;-72
2022/09/27 09:49:46;;;;;;;4.17;1.80;;;11.60;99.90;;;;;;4999108;28;20072;-73
2022/09/27 09:52:23;;;;;;;3.35;1.73;;;11.60;99.90;;;;;;5015604;28;20037;-73
2022/09/27 09:54:56;;;;;;;3.50;1.50;;;11.60;99.90;;;;;;5015433;28;20129;-73
2022/09/27 09:57:27;;;;;;;7.40;2.17;;;11.60;99.90;;;;;;5015203;28;20100;-73
2022/09/27 10:00:13;;;;;;;;;;;11.60;99.90;;;;;;5016223;28;20112;-73
2022/09/27 10:02:46;;;;;;;4.27;1.67;;;11.60;99.90;;;;;;4999151;28;19921;-73
2022/09/27 10:05:19;;;;;;;3.43;1.70;;;11.70;99.90;;;;;;5014048;28;20029;-73
2022/09/27 10:07:51;;;;;;;3.77;1.60;;;11.70;99.90;;;;;;5015111;28;20033;-73
2022/09/27 10:10:19;;;;;;;3.50;1.52;;;11.70;99.90;;;;;;5015384;28;20120;-73
2022/09/27 10:13:23;;;;;;;3.90;1.70;;;11.70;99.90;;;;;;5014362;28;20076;-73
2022/09/27 10:16:04;;;;;;;5.07;1.80;;;11.70;99.90;;;;;;5015402;28;20043;-73
2022/09/27 10:18:34;;;;;;;5.93;2.10;;;11.70;99.90;;;;;;5031062;28;20109;-74
2022/09/27 10:21:05;;;;;;;5.07;1.77;;;11.70;99.90;;;;;;5031732;28;20052;-73
2022/09/27 10:23:33;;;;;;;4.15;1.77;;;11.80;99.90;;;;;;5015250;28;20275;-73
2022/09/27 10:26:18;;;;;;;4.47;1.90;;;11.80;99.90;;;;;;5014919;28;20064;-73
2022/09/27 10:28:49;;;;;;;3.67;1.63;;;11.90;99.90;;;;;;5014898;28;20025;-73
2022/09/27 10:31:21;;;;;;;5.53;1.55;;;11.90;99.90;;;;;;5014932;28;20033;-73
2022/09/27 10:34:28;;;;;;;3.83;1.70;;;11.90;99.90;;;;;;5032304;28;20044;-73
2022/09/27 10:37:17;;;;;;;4.88;1.65;;;11.90;99.90;;;;;;5031536;28;20470;-72
2022/09/27 10:40:24;;;;;;;3.55;1.83;;;12.00;99.90;;;;;;5016245;28;20120;-71
2022/09/27 10:42:53;;;;;;;3.30;1.40;;;12.00;99.90;;;;;;5031587;28;20065;-71
2022/09/27 10:45:33;;;;;;;3.83;1.60;;;12.00;99.90;;;;;;5013830;28;20052;-72
2022/09/27 10:48:22;;;;;;;3.27;1.30;;;12.00;99.90;;;;;;5013794;28;20025;-72
2022/09/27 10:51:03;;;;;;;4.38;1.10;;;12.00;99.90;;;;;;5013761;28;20044;-72
2022/09/27 10:53:47;;;;;;;2.33;1.00;;;12.10;99.90;;;;;;5013829;28;20398;-72
2022/09/27 10:56:25;;;;;;;4.20;1.10;;;12.10;99.90;;;;;;5013575;28;20036;-72
2022/09/27 10:58:51;;;;;;;3.45;1.38;;;12.20;99.90;;;;;;5013915;28;20544;-72
2022/09/27 11:01:20;;;;;;;1.87;1.20;;;12.20;99.90;;;;;;4997321;28;20029;-72
2022/09/27 11:04:32;;;;;;;3.60;1.70;;;12.10;99.90;;;;;;5013806;28;20032;-72
2022/09/27 11:07:13;;;;;;;6.03;1.65;;;12.10;99.90;;;;;;5013363;28;20056;-72
2022/09/27 11:10:01;;;;;;;6.03;1.90;;;12.10;99.90;;;;;;5013291;28;20072;-70
2022/09/27 11:12:30;;;;;;;2.20;1.70;;;12.10;99.90;;;;;;5013482;28;20453;-72
2022/09/27 11:15:14;;;;;;;3.15;1.70;;;12.10;99.90;;;;;;5031267;28;20029;-72
2022/09/27 11:18:04;;;;;;;2.57;1.80;;;12.10;99.90;;;;;;5033600;28;20026;-73
2022/09/27 11:20:38;;;;;;;4.93;2.47;;;12.00;99.90;;;;;;5017258;28;20401;-73
2022/09/27 11:23:28;;;;;;;4.38;2.30;;;12.00;99.90;;;;;;5033949;28;20064;-74
2022/09/27 11:26:06;;;;;;;6.05;2.30;;;12.00;99.90;;;;;;5017284;28;20033;-73
2022/09/27 11:29:01;;;;;;;5.50;2.53;;;12.00;99.90;;;;;;5017223;28;20033;-73
2022/09/27 11:32:03;;;;;;;4.63;2.70;;;12.00;99.90;;;;;;5020428;28;20114;-72
2022/09/27 11:34:30;;;;;;;;;;;12.00;99.90;;;;;;5017658;28;20021;-73
2022/09/27 11:37:05;;;;;;;5.53;2.08;;;12.10;99.90;;;;;;5017147;28;19912;-73
2022/09/27 11:39:51;;;;;;;6.57;2.13;;;12.10;99.90;;;;;;5017051;28;20490;-73
2022/09/27 11:42:32;;;;;;;3.75;2.20;;;12.20;99.90;;;;;;5017644;28;20505;-74
2022/09/27 11:45:20;;;;;;;3.58;2.33;;;12.20;99.90;;;;;;5035763;28;20026;-72
2022/09/27 11:48:44;;;;;;;3.75;2.25;;;12.30;99.90;;;;;;5000612;28;20037;-72
2022/09/27 11:51:30;;;;;;;5.40;2.80;;;12.30;99.90;;;;;;4954160;28;20085;-72
2022/09/27 11:54:20;;;;;;;4.50;2.50;;;12.30;99.90;;;;;;4938386;29;20039;-72
2022/09/27 11:56:53;;;;;;;6.25;3.20;;;12.20;99.90;;;;;;5015832;28;20046;-72
2022/09/27 11:59:38;;;;;;;7.25;4.28;;;12.10;99.90;;;;;;5033374;28;20036;-73
2022/09/27 12:02:33;;;;;;;6.05;3.20;;;12.10;99.90;;;;;;5016630;28;20402;-72
2022/09/27 12:05:33;;;;;;;4.70;3.00;;;12.00;99.90;;;;;;5016626;28;20120;-72
2022/09/27 12:08:32;;;;;;;7.50;3.50;;;11.90;99.90;;;;;;5016719;28;20394;-72
2022/09/27 12:11:15;;;;;;;3.80;2.03;;;11.80;99.90;;;;;;5016083;28;20103;-72
2022/09/27 12:14:02;;;;;;;5.07;2.37;;;11.70;99.90;;;;;;5016632;28;20029;-72
2022/09/27 12:16:31;;;;;;;4.55;2.70;;;11.60;99.90;;;;;;5016584;28;20259;-72
2022/09/27 12:18:58;;;;;;;5.63;3.10;;;11.60;99.90;;;;;;5033815;28;20195;-72
2022/09/27 12:21:41;;;;;;;6.43;3.20;;;11.50;99.90;;;;;;5016217;28;20060;-72
2022/09/27 12:24:20;;;;;;;6.37;3.30;;;11.60;99.90;;;;;;5033760;28;20022;-72
2022/09/27 12:27:02;;;;;;;5.38;3.17;;;11.60;99.90;;;;;;5015044;28;20029;-72
2022/09/27 12:29:38;;;;;;;12.83;4.80;;;11.70;99.90;;;;;;5016041;28;20037;-72
2022/09/27 12:32:21;;;;;;;10.50;4.53;;;11.70;99.90;;;;;;5015949;28;20482;-72
2022/09/27 12:35:14;;;;;;;6.17;3.13;;;11.60;99.90;;;;;;5015795;28;20033;-72
2022/09/27 12:38:04;;;;;;;4.33;1.90;;;11.50;99.90;;;;;;5033491;28;20033;-72
2022/09/27 12:40:35;;;;;;;4.40;2.33;;;11.50;99.90;;;;;;5017274;28;20075;-73
2022/09/27 12:43:22;;;;;;;6.57;3.53;;;11.50;99.90;;;;;;5017572;28;20040;-73
2022/09/27 12:46:30;;;;;;;9.30;3.50;;;11.50;99.90;;;;;;5029347;28;20084;-74
2022/09/27 12:49:24;;;;;;;7.83;2.73;;;11.50;99.90;;;;;;5017727;28;20037;-74
2022/09/27 12:52:10;;;;;;;4.00;2.20;;;11.50;99.90;;;;;;4992383;28;20501;-74
2022/09/27 12:55:09;;;;;;;3.57;2.10;;;11.50;99.90;;;;;;5015556;28;20073;-74
2022/09/27 12:58:11;;;;;;;3.28;2.22;;;11.50;99.90;;;;;;5033103;28;20030;-73
2022/09/27 13:00:50;;;;;;;4.37;2.17;;;11.50;99.90;;;;;;5031525;28;20044;-73
2022/09/27 13:03:40;;;;;;;3.53;2.15;;;11.50;99.90;;;;;;5015553;28;20109;-74
2022/09/27 13:06:27;;;;;;;3.73;2.20;;;11.50;99.90;;;;;;4999306;28;20401;-74
2022/09/27 13:09:32;;;;;;;3.57;2.30;;;11.60;99.90;;;;;;5015313;28;20072;-73
2022/09/27 13:12:02;;;;;;;4.87;2.13;;;11.60;99.90;;;;;;5015127;28;20079;-74
2022/09/27 13:14:38;;;;;;;2.80;1.97;;;11.60;99.90;;;;;;5015384;28;20033;-74
2022/09/27 13:17:05;;;;;;;12.67;3.90;;;11.60;99.90;;;;;;5032732;28;20022;-74
2022/09/27 13:19:44;;;;;;;11.13;2.93;;;11.60;99.90;;;;;;5014873;28;20045;-74
2022/09/27 13:22:38;;;;;;;6.83;3.10;;;11.60;99.90;;;;;;5014981;28;20171;-72
2022/09/27 13:25:52;;;;;;;9.07;3.00;;;11.70;99.90;;;;;;5032527;28;20030;-72
2022/09/27 13:28:46;;;;;;;6.93;2.30;;;11.80;99.90;;;;;;5014876;28;20102;-72
2022/09/27 13:31:14;;;;;;;4.22;1.52;;;11.90;99.90;;;;;;4985285;28;20426;-72
2022/09/27 13:33:48;;;;;;;4.07;1.80;;;11.90;99.90;;;;;;5031421;28;20025;-72
2022/09/27 13:36:29;;;;;;;3.67;1.30;;;11.90;99.90;;;;;;5014469;28;20033;-72
2022/09/27 13:39:10;;;;;;;4.05;1.25;;;12.00;99.90;;;;;;5014565;28;20037;-72
2022/09/27 13:42:28;;;;;;;3.45;1.30;;;12.00;99.90;;;;;;4998861;28;20037;-72
2022/09/27 13:45:15;;;;;;;3.55;1.20;;;12.10;99.90;;;;;;5031177;28;20494;-73
2022/09/27 13:47:46;;;;;;;3.73;1.03;;;12.10;99.90;;;;;;5014481;28;20026;-73
2022/09/27 13:51:12;;;;;;;3.78;1.25;;;12.10;99.90;;;;;;5014357;28;20167;-73
2022/09/27 13:53:40;;;;;;;3.08;1.50;;;12.10;99.90;;;;;;4981960;28;20129;-72
2022/09/27 13:56:35;;;;;;;5.55;2.25;;;12.20;99.90;;;;;;5030640;28;20025;-72
2022/09/27 13:59:30;;;;;;;2.97;0.90;;;12.20;99.90;;;;;;5013976;28;20025;-72